Archival Weather

Chicago O'Hare International

Chicago, Illinois (KORD)

Report from: Friday, September 23, 2022 8:51 AM CDT
Current time: Sunday, December 4, 2022 6:01 AM CST

Current weather
Weather history
Weather forecast

Temperature12.2°C (54.0°F)
Dew point7.2°C (45.0°F)
Winds 8 kts (4.1 m/s, 9.2 mph) South (170°)
Visibility10 mi. (16.1 km)
Clouds Few clouds 2,500 ft. (762 m)
Scattered clouds 15,000 ft. (4,572 m)
Ceiling: Broken clouds 25,000 ft. (7,620 m)
Altimeter30.26 in.Hg (1025 mB)
Relative humidity72 %
Density altitude-574 ft. (-175 m)
Sea-level pressure102.5 kPa (1025 mB, 30.26 in.Hg)
Remarks Automated weather observing station with precipitation discriminator
Flight conditions Visual Meteorological Conditions
Raw dataKORD 231351Z 17008KT 10SM FEW025 SCT150 BKN250 12/07 A3026 RMK AO2 SLP248 T01220072
An error has occurred. This application may no longer respond until reloaded. Reload 🗙